createdAt,value
2019-01-27T00:03:34.429Z,74.80
2019-01-27T00:08:13.727Z,74.40
2019-01-27T00:12:48.174Z,74.70
2019-01-27T00:17:23.924Z,73.90
2019-01-27T00:21:59.693Z,72.80
2019-01-27T00:26:35.444Z,72.10
2019-01-27T00:31:11.248Z,71.70
2019-01-27T00:35:47.004Z,71.60
2019-01-27T00:40:22.787Z,71.70
2019-01-27T00:44:58.546Z,71.80
2019-01-27T00:49:34.351Z,72.80
2019-01-27T00:54:10.117Z,73.30
2019-01-27T00:58:45.908Z,73.90
2019-01-27T01:03:21.665Z,74.40
2019-01-27T01:07:57.452Z,74.70
2019-01-27T01:12:33.216Z,74.80
2019-01-27T01:17:08.993Z,74.70
2019-01-27T01:21:44.816Z,74.00
2019-01-27T01:26:20.588Z,74.40
2019-01-27T01:30:56.643Z,73.20
2019-01-27T01:35:32.422Z,72.80
2019-01-27T01:40:11.052Z,72.70
2019-01-27T01:44:47.117Z,72.50
2019-01-27T01:49:22.872Z,73.10
2019-01-27T01:53:58.641Z,73.40
2019-01-27T01:58:34.433Z,73.70
2019-01-27T02:03:10.508Z,74.40
2019-01-27T02:07:46.466Z,74.50
2019-01-27T02:12:22.235Z,74.70
2019-01-27T02:16:57.985Z,74.60
2019-01-27T02:21:35.357Z,75.30
2019-01-27T02:26:11.745Z,75.20
2019-01-27T02:30:47.532Z,74.50
2019-01-27T02:35:23.289Z,75.10
2019-01-27T02:39:59.086Z,75.40
2019-01-27T02:44:34.823Z,75.80
2019-01-27T02:49:10.604Z,76.40
2019-01-27T02:53:46.363Z,76.50
2019-01-27T02:58:22.200Z,76.20
2019-01-27T03:02:57.977Z,76.00
2019-01-27T03:07:38.879Z,76.10
2019-01-27T03:12:14.630Z,76.10
2019-01-27T03:16:51.998Z,76.00
2019-01-27T03:21:27.759Z,76.00
2019-01-27T03:26:03.548Z,76.10
2019-01-27T03:30:39.297Z,76.30
2019-01-27T03:35:15.370Z,76.20
2019-01-27T03:39:51.138Z,76.10
2019-01-27T03:44:26.981Z,75.90
2019-01-27T03:49:02.800Z,75.70
2019-01-27T03:53:38.580Z,76.10
2019-01-27T03:58:14.336Z,76.80
2019-01-27T04:02:50.122Z,78.00
2019-01-27T04:07:25.894Z,78.60
2019-01-27T04:12:01.668Z,79.50
2019-01-27T04:16:37.429Z,79.70
2019-01-27T04:21:13.191Z,79.30
2019-01-27T04:25:48.930Z,80.30
2019-01-27T04:30:37.519Z,80.10
2019-01-27T04:35:13.582Z,79.50
2019-01-27T04:39:49.344Z,79.20
2019-01-27T04:44:25.102Z,78.80
2019-01-27T04:49:00.875Z,78.20
2019-01-27T04:53:36.636Z,78.00
2019-01-27T04:58:12.708Z,78.50
2019-01-27T05:02:56.948Z,77.90
2019-01-27T05:07:32.730Z,78.00
2019-01-27T05:12:08.497Z,78.40
2019-01-27T05:16:44.273Z,78.60
2019-01-27T05:21:20.102Z,78.40
2019-01-27T05:25:55.882Z,79.70
2019-01-27T05:30:31.632Z,80.60
2019-01-27T05:35:08.185Z,79.90
2019-01-27T05:39:43.936Z,79.60
2019-01-27T05:44:19.729Z,79.40
2019-01-27T05:48:55.485Z,78.60
2019-01-27T05:53:31.293Z,78.60
2019-01-27T05:58:07.054Z,77.70
2019-01-27T06:02:42.833Z,77.50
2019-01-27T06:07:18.576Z,77.60
2019-01-27T06:11:54.344Z,77.70
2019-01-27T06:16:30.115Z,77.20
2019-01-27T06:21:06.188Z,76.90
2019-01-27T06:25:41.951Z,76.60
2019-01-27T06:30:20.335Z,76.70
2019-01-27T06:34:56.088Z,76.80
2019-01-27T06:39:31.849Z,76.70
2019-01-27T06:44:07.614Z,76.50
2019-01-27T06:48:43.396Z,76.40
2019-01-27T06:53:19.144Z,76.70
2019-01-27T06:57:54.927Z,76.30
2019-01-27T07:02:52.414Z,76.50
2019-01-27T07:07:53.193Z,75.80
2019-01-27T07:13:00.045Z,76.40
2019-01-27T07:18:06.851Z,75.60
2019-01-27T07:23:10.739Z,74.90
2019-01-27T07:28:08.440Z,75.00
2019-01-27T07:33:03.172Z,74.50
2019-01-27T07:37:46.696Z,73.70
2019-01-27T07:42:37.378Z,74.50
2019-01-27T07:47:33.567Z,74.90
2019-01-27T07:52:24.410Z,74.60
2019-01-27T07:57:08.028Z,75.00
2019-01-27T08:02:12.063Z,74.80
2019-01-27T08:07:09.781Z,74.40
2019-01-27T08:12:10.525Z,74.00
2019-01-27T08:17:03.783Z,73.70
2019-01-27T08:21:58.625Z,73.90
2019-01-27T08:27:02.184Z,73.80
2019-01-27T08:32:03.556Z,73.70
2019-01-27T08:37:01.121Z,73.30
2019-01-27T08:41:54.621Z,72.00
2019-01-27T08:46:38.088Z,71.70
2019-01-27T08:51:13.885Z,71.80
2019-01-27T08:55:49.652Z,71.20
2019-01-27T09:00:31.492Z,71.70
2019-01-27T09:05:34.261Z,72.00
2019-01-27T09:10:36.317Z,71.10
2019-01-27T09:15:30.009Z,71.20
2019-01-27T09:20:31.533Z,70.20
2019-01-27T09:25:30.780Z,70.20
2019-01-27T09:30:31.397Z,69.30
2019-01-27T09:35:25.416Z,69.30
2019-01-27T09:40:23.161Z,69.00
2019-01-27T09:45:05.505Z,69.00
2019-01-27T09:50:12.246Z,67.50
2019-01-27T09:55:04.254Z,67.70
2019-01-27T09:59:57.896Z,66.20
2019-01-27T10:04:38.796Z,64.60
2019-01-27T10:09:23.896Z,64.60
2019-01-27T10:14:17.296Z,64.80
2019-01-27T10:19:24.365Z,64.80
2019-01-27T10:24:24.874Z,64.50
2019-01-27T10:29:28.829Z,63.60
2019-01-27T10:34:26.038Z,63.60
2019-01-27T10:39:13.237Z,63.80
2019-01-27T10:43:57.894Z,62.80
2019-01-27T10:48:52.144Z,63.30
2019-01-27T10:53:43.755Z,63.90
2019-01-27T10:58:39.381Z,63.70
2019-01-27T11:03:36.565Z,62.10
2019-01-27T11:08:22.655Z,63.10
2019-01-27T11:13:17.354Z,63.10
2019-01-27T11:18:04.916Z,63.40
2019-01-27T11:22:57.339Z,63.00
2019-01-27T11:27:41.211Z,62.90
2019-01-27T11:32:44.872Z,62.20
2019-01-27T11:37:31.430Z,62.90
2019-01-27T11:42:19.701Z,62.10
2019-01-27T11:47:12.128Z,61.90
2019-01-27T11:51:55.806Z,62.20
2019-01-27T11:56:31.563Z,62.40
2019-01-27T12:01:08.141Z,62.30
2019-01-27T12:05:43.909Z,61.30
2019-01-27T12:10:19.673Z,61.40
2019-01-27T12:14:55.422Z,61.00
2019-01-27T12:19:31.197Z,61.10
2019-01-27T12:24:06.948Z,60.50
2019-01-27T12:28:42.708Z,60.40
2019-01-27T12:33:18.501Z,61.50
2019-01-27T12:37:54.341Z,60.30
2019-01-27T12:42:30.088Z,59.50
2019-01-27T12:47:05.861Z,59.20
2019-01-27T12:51:41.604Z,59.40
2019-01-27T12:56:18.377Z,59.40
2019-01-27T13:01:01.411Z,60.20
2019-01-27T13:05:37.385Z,61.30
2019-01-27T13:10:15.177Z,61.80
2019-01-27T13:14:50.965Z,62.20
2019-01-27T13:19:26.717Z,62.60
2019-01-27T13:24:02.494Z,62.30
2019-01-27T13:28:38.236Z,62.10
2019-01-27T13:33:14.034Z,62.60
2019-01-27T13:37:50.180Z,62.70
2019-01-27T13:42:25.952Z,62.80
2019-01-27T13:47:01.706Z,63.60
2019-01-27T13:51:37.472Z,63.50
2019-01-27T13:56:13.224Z,63.10
2019-01-27T14:00:49.001Z,63.40
2019-01-27T14:05:24.748Z,63.40
2019-01-27T14:10:00.800Z,63.40
2019-01-27T14:14:36.548Z,63.70
2019-01-27T14:19:12.326Z,64.30
2019-01-27T14:23:48.096Z,65.20
2019-01-27T14:28:23.872Z,65.50
2019-01-27T14:32:59.624Z,64.60
2019-01-27T14:37:36.528Z,64.10
2019-01-27T14:42:12.311Z,64.50
2019-01-27T14:46:48.085Z,66.00
2019-01-27T14:51:23.854Z,67.30
2019-01-27T14:55:59.629Z,66.80
2019-01-27T15:00:38.436Z,67.50
2019-01-27T15:05:14.769Z,67.60
2019-01-27T15:09:50.597Z,67.40
2019-01-27T15:14:26.384Z,67.60
2019-01-27T15:19:02.138Z,67.50
2019-01-27T15:23:37.905Z,66.20
2019-01-27T15:28:13.656Z,66.90
2019-01-27T15:32:51.109Z,65.80
2019-01-27T15:37:26.869Z,66.20
2019-01-27T15:42:02.693Z,66.60
2019-01-27T15:46:38.469Z,67.40
2019-01-27T15:51:14.262Z,67.30
2019-01-27T15:55:50.017Z,67.60
2019-01-27T16:00:28.832Z,67.40
2019-01-27T16:05:06.337Z,66.90
2019-01-27T16:09:42.104Z,66.80
2019-01-27T16:14:17.852Z,67.00
2019-01-27T16:18:58.809Z,66.80
2019-01-27T16:23:52.896Z,67.00
2019-01-27T16:28:28.676Z,66.90
2019-01-27T16:33:08.936Z,68.10
2019-01-27T16:37:44.728Z,68.20
2019-01-27T16:42:20.486Z,68.20
2019-01-27T16:46:56.257Z,68.50
2019-01-27T16:51:32.068Z,69.10
2019-01-27T16:56:07.845Z,69.60
2019-01-27T17:00:43.610Z,69.80
2019-01-27T17:05:19.404Z,68.20
2019-01-27T17:09:55.174Z,68.60
2019-01-27T17:14:30.961Z,68.30
2019-01-27T17:19:07.212Z,69.30
2019-01-27T17:23:42.992Z,69.90
2019-01-27T17:28:18.768Z,70.20
2019-01-27T17:32:54.553Z,71.60
2019-01-27T17:37:30.298Z,72.70
2019-01-27T17:42:06.391Z,72.60
2019-01-27T17:46:42.160Z,73.40
2019-01-27T17:51:17.965Z,73.90
2019-01-27T17:55:53.752Z,74.50
2019-01-27T18:00:45.320Z,75.00
2019-01-27T18:05:25.948Z,74.90
2019-01-27T18:10:19.787Z,75.90
2019-01-27T18:14:55.539Z,76.40
2019-01-27T18:19:31.312Z,75.40
2019-01-27T18:24:07.082Z,75.00
2019-01-27T18:28:42.893Z,74.90
2019-01-27T18:33:19.207Z,74.70
2019-01-27T18:37:56.360Z,75.40
2019-01-27T18:42:32.197Z,75.80
2019-01-27T18:47:08.051Z,76.20
2019-01-27T18:51:44.313Z,75.90
2019-01-27T18:56:35.125Z,75.50
2019-01-27T19:01:28.643Z,75.20
2019-01-27T19:06:29.758Z,75.70
2019-01-27T19:11:25.216Z,76.60
2019-01-27T19:16:19.985Z,78.20
2019-01-27T19:21:20.520Z,78.90
2019-01-27T19:26:07.511Z,78.30
2019-01-27T19:30:50.178Z,78.80
2019-01-27T19:35:56.981Z,79.50
2019-01-27T19:40:50.198Z,80.80
2019-01-27T19:45:47.960Z,81.00
2019-01-27T19:50:58.036Z,82.20
2019-01-27T19:55:51.425Z,81.00
2019-01-27T20:00:45.148Z,81.00
2019-01-27T20:05:40.988Z,82.00
2019-01-27T20:10:41.567Z,83.00
2019-01-27T20:15:37.503Z,83.30
2019-01-27T20:20:36.997Z,83.60
2019-01-27T20:25:38.053Z,83.40
2019-01-27T20:30:33.885Z,84.40
2019-01-27T20:35:26.241Z,84.10
2019-01-27T20:40:11.545Z,84.60
2019-01-27T20:45:04.799Z,84.30
2019-01-27T20:49:50.098Z,84.10
2019-01-27T20:54:40.095Z,84.60
2019-01-27T20:59:43.876Z,85.60
2019-01-27T21:04:50.536Z,86.50
2019-01-27T21:09:57.364Z,87.30
2019-01-27T21:14:52.056Z,87.90
2019-01-27T21:19:38.833Z,87.40
2019-01-27T21:24:14.590Z,87.10
2019-01-27T21:28:50.404Z,87.40
2019-01-27T21:33:26.162Z,87.50
2019-01-27T21:38:01.939Z,88.90
2019-01-27T21:42:37.688Z,88.90
2019-01-27T21:47:13.484Z,89.60
2019-01-27T21:51:49.257Z,89.60
2019-01-27T21:56:25.033Z,89.50
2019-01-27T22:01:00.791Z,88.80
2019-01-27T22:05:36.749Z,88.50
2019-01-27T22:10:14.108Z,89.80
2019-01-27T22:14:49.880Z,90.30
2019-01-27T22:19:25.647Z,90.00
2019-01-27T22:24:02.629Z,90.30
2019-01-27T22:28:38.372Z,90.40
2019-01-27T22:33:14.152Z,90.50
2019-01-27T22:37:49.905Z,90.30
2019-01-27T22:42:25.706Z,89.40
2019-01-27T22:47:01.457Z,89.40
2019-01-27T22:51:37.238Z,87.90
2019-01-27T22:56:12.988Z,87.60
2019-01-27T23:01:05.625Z,88.70
2019-01-27T23:05:41.400Z,88.60
2019-01-27T23:10:17.188Z,88.10
2019-01-27T23:14:52.977Z,87.40
2019-01-27T23:19:28.761Z,88.10
2019-01-27T23:24:04.717Z,87.30
2019-01-27T23:28:40.505Z,85.40
2019-01-27T23:33:16.325Z,83.00
2019-01-27T23:37:52.095Z,82.10
2019-01-27T23:42:27.839Z,82.80
2019-01-27T23:47:03.616Z,82.90
2019-01-27T23:51:39.363Z,83.70
2019-01-27T23:56:15.144Z,85.10
